Time;durP1;ratioP1;P1;durP2;ratioP2;P2;SDS_P1;SDS_P2;PMS_P1;PMS_P2;Temp;Humidity;BMP_temperature;BMP_pressure;BME280_temperature;BME280_humidity;BME280_pressure;Samples;Min_cycle;Max_cycle;Signal;HPM_P1;HPM_P2
2023/07/12 00:00:24;;;;;;;4.22;2.33;;;19.90;99.90;;;;;;5091238;28;20545;-76
2023/07/12 00:02:50;;;;;;;5.43;2.30;;;19.90;99.90;;;;;;5091346;28;20066;-77
2023/07/12 00:05:17;;;;;;;3.97;2.08;;;19.80;99.90;;;;;;5091398;28;20040;-77
2023/07/12 00:07:45;;;;;;;4.93;2.10;;;19.80;99.90;;;;;;5091697;28;20047;-77
2023/07/12 00:10:17;;;;;;;4.60;2.40;;;19.70;99.90;;;;;;5074114;28;20040;-76
2023/07/12 00:12:43;;;;;;;7.60;2.60;;;19.70;99.90;;;;;;5091095;28;20118;-77
2023/07/12 00:15:17;;;;;;;4.70;2.33;;;19.70;99.90;;;;;;5091406;28;20124;-77
2023/07/12 00:17:42;;;;;;;3.47;2.30;;;19.70;99.90;;;;;;5091277;28;20527;-76
2023/07/12 00:20:23;;;;;;;3.65;2.20;;;19.70;99.90;;;;;;5090851;28;20050;-77
2023/07/12 00:22:51;;;;;;;4.95;2.20;;;19.70;99.90;;;;;;5090745;28;20032;-77
2023/07/12 00:25:17;;;;;;;4.25;2.03;;;19.60;99.90;;;;;;5090880;28;20044;-77
2023/07/12 00:27:43;;;;;;;3.53;2.13;;;19.60;99.90;;;;;;5091213;28;20051;-77
2023/07/12 00:30:19;;;;;;;2.70;2.22;;;19.50;99.90;;;;;;5091158;28;20045;-78
2023/07/12 00:32:48;;;;;;;3.42;2.08;;;19.50;99.90;;;;;;5089469;28;20558;-76
2023/07/12 00:35:17;;;;;;;5.38;2.10;;;19.40;99.90;;;;;;5090193;28;20598;-77
2023/07/12 00:37:43;;;;;;;4.57;2.25;;;19.40;99.90;;;;;;5090758;28;20071;-76
2023/07/12 00:40:38;;;;;;;3.63;1.90;;;19.40;99.90;;;;;;5080086;28;20057;-76
2023/07/12 00:43:35;;;;;;;2.83;1.90;;;19.40;99.90;;;;;;5091582;28;20044;-77
2023/07/12 00:46:04;;;;;;;7.72;2.28;;;19.30;99.90;;;;;;5053694;28;20040;-76
2023/07/12 00:48:29;;;;;;;6.47;2.40;;;19.30;99.90;;;;;;5053937;28;20115;-77
2023/07/12 00:50:55;;;;;;;6.22;2.47;;;19.30;99.90;;;;;;5070341;28;20123;-77
2023/07/12 00:53:23;;;;;;;2.90;2.13;;;19.30;99.90;;;;;;5086460;28;20127;-77
2023/07/12 00:56:02;;;;;;;4.82;2.25;;;19.30;99.90;;;;;;5090394;28;20032;-77
2023/07/12 00:58:35;;;;;;;6.32;2.58;;;19.30;99.90;;;;;;5090439;28;20452;-76
2023/07/12 01:01:02;;;;;;;3.50;2.47;;;19.30;99.90;;;;;;5090321;28;20036;-77
2023/07/12 01:03:32;;;;;;;4.35;2.40;;;19.20;99.90;;;;;;5090154;28;20028;-77
2023/07/12 01:06:00;;;;;;;4.20;2.40;;;19.20;99.90;;;;;;5090253;28;20073;-76
2023/07/12 01:08:27;;;;;;;5.25;2.38;;;19.20;99.90;;;;;;5090311;28;20040;-77
2023/07/12 01:10:53;;;;;;;4.43;2.50;;;19.20;99.90;;;;;;5090011;28;20040;-77
2023/07/12 01:13:20;;;;;;;5.13;2.55;;;19.20;99.90;;;;;;5090000;28;20040;-77
2023/07/12 01:15:46;;;;;;;4.15;2.75;;;19.20;99.90;;;;;;5090407;28;20471;-76
2023/07/12 01:18:12;;;;;;;4.93;2.40;;;19.10;99.90;;;;;;5089970;28;20067;-77
2023/07/12 01:20:41;;;;;;;5.43;2.75;;;19.10;99.90;;;;;;5090175;28;20503;-76
2023/07/12 01:23:07;;;;;;;5.30;2.50;;;19.00;99.90;;;;;;5089802;28;20086;-76
2023/07/12 01:25:43;;;;;;;8.13;3.00;;;19.00;99.90;;;;;;5090222;28;20040;-77
2023/07/12 01:28:08;;;;;;;5.13;2.80;;;19.00;99.90;;;;;;5089936;28;20042;-77
2023/07/12 01:30:34;;;;;;;4.55;2.70;;;19.00;99.90;;;;;;5090027;28;20066;-77
2023/07/12 01:33:00;;;;;;;5.35;3.05;;;18.90;99.90;;;;;;5072966;28;20064;-77
2023/07/12 01:35:26;;;;;;;4.57;2.65;;;18.90;99.90;;;;;;5089912;28;20519;-76
2023/07/12 01:37:51;;;;;;;5.63;2.50;;;18.90;99.90;;;;;;5089767;28;20044;-77
2023/07/12 01:40:17;;;;;;;8.25;3.25;;;18.90;99.90;;;;;;5089890;28;20036;-77
2023/07/12 01:42:43;;;;;;;6.05;3.00;;;18.90;99.90;;;;;;5089725;28;20036;-77
2023/07/12 01:45:08;;;;;;;5.82;2.90;;;18.80;99.90;;;;;;5090153;28;20036;-77
2023/07/12 01:47:34;;;;;;;5.20;2.90;;;18.80;99.90;;;;;;5089920;28;20079;-77
2023/07/12 01:49:59;;;;;;;7.93;3.17;;;18.70;99.90;;;;;;5089853;28;20040;-77
2023/07/12 01:52:25;;;;;;;4.57;3.00;;;18.70;99.90;;;;;;5073185;28;20044;-77
2023/07/12 01:54:51;;;;;;;6.28;2.97;;;18.70;99.90;;;;;;5089859;28;20128;-77
2023/07/12 01:57:16;;;;;;;4.18;3.05;;;18.70;99.90;;;;;;5093333;28;20036;-77
2023/07/12 01:59:42;;;;;;;5.88;3.40;;;18.70;99.90;;;;;;5094143;28;20036;-77
2023/07/12 02:02:08;;;;;;;5.22;3.20;;;18.70;99.90;;;;;;5093608;28;20043;-77
2023/07/12 02:04:34;;;;;;;5.13;3.15;;;18.70;99.90;;;;;;5093648;28;20047;-77
2023/07/12 02:06:59;;;;;;;5.97;3.78;;;18.70;99.90;;;;;;5093493;28;20044;-77
2023/07/12 02:09:35;;;;;;;5.45;3.45;;;18.70;99.90;;;;;;5076545;28;20051;-77
2023/07/12 02:12:01;;;;;;;6.25;3.80;;;18.60;99.90;;;;;;5093519;28;20048;-77
2023/07/12 02:14:27;;;;;;;9.05;3.58;;;18.60;99.90;;;;;;5093493;28;20058;-77
2023/07/12 02:16:52;;;;;;;5.05;3.30;;;18.60;99.90;;;;;;5076724;28;20047;-77
2023/07/12 02:19:18;;;;;;;6.43;3.70;;;18.60;99.90;;;;;;5093452;28;20044;-77
2023/07/12 02:21:43;;;;;;;7.28;4.07;;;18.60;99.90;;;;;;5093500;28;20179;-77
2023/07/12 02:24:09;;;;;;;6.10;3.65;;;18.60;99.90;;;;;;5093206;28;20058;-77
2023/07/12 02:26:35;;;;;;;6.93;3.90;;;18.60;99.90;;;;;;5093254;28;20044;-77
2023/07/12 02:29:01;;;;;;;7.68;4.07;;;18.50;99.90;;;;;;5093559;28;20043;-76
2023/07/12 02:31:29;;;;;;;9.23;3.95;;;18.50;99.90;;;;;;5093452;28;20047;-76
2023/07/12 02:33:55;;;;;;;6.07;4.00;;;18.50;99.90;;;;;;5093199;28;20032;-77
2023/07/12 02:36:20;;;;;;;7.93;4.65;;;18.50;99.90;;;;;;5077274;28;20043;-79
2023/07/12 02:38:49;;;;;;;8.25;4.28;;;18.40;99.90;;;;;;5095510;28;20040;-78
2023/07/12 02:41:16;;;;;;;9.43;4.50;;;18.40;99.90;;;;;;5097179;28;20040;-77
2023/07/12 02:43:41;;;;;;;9.40;4.68;;;18.30;99.90;;;;;;5082185;28;20059;-78
2023/07/12 02:46:07;;;;;;;7.95;3.90;;;18.30;99.90;;;;;;5095051;28;20044;-78
2023/07/12 02:48:32;;;;;;;11.02;4.00;;;18.20;99.90;;;;;;5094664;28;20414;-77
2023/07/12 02:50:58;;;;;;;11.38;4.63;;;18.20;99.90;;;;;;5094248;28;20127;-78
2023/07/12 02:53:23;;;;;;;9.63;3.92;;;18.20;99.90;;;;;;5094267;28;20070;-78
2023/07/12 02:55:50;;;;;;;13.35;4.40;;;18.20;99.90;;;;;;5094443;28;20036;-79
2023/07/12 02:58:16;;;;;;;15.75;4.40;;;18.10;99.90;;;;;;5078273;28;20043;-78
2023/07/12 03:00:41;;;;;;;10.93;3.90;;;18.10;99.90;;;;;;5095058;28;20028;-79
2023/07/12 03:03:09;;;;;;;10.15;4.10;;;18.10;99.90;;;;;;5094386;28;20032;-78
2023/07/12 03:05:38;;;;;;;14.90;4.43;;;18.10;99.90;;;;;;5093902;28;20066;-78
2023/07/12 03:08:04;;;;;;;10.95;4.32;;;18.00;99.90;;;;;;5093004;28;20044;-78
2023/07/12 03:10:31;;;;;;;10.65;4.38;;;18.00;99.90;;;;;;5093158;28;20051;-78
2023/07/12 03:12:57;;;;;;;8.05;4.15;;;18.00;99.90;;;;;;5075604;28;20088;-77
2023/07/12 03:15:23;;;;;;;10.15;4.55;;;17.90;99.90;;;;;;5092961;28;20039;-77
2023/07/12 03:17:48;;;;;;;15.77;4.80;;;18.00;99.90;;;;;;5093252;28;20042;-77
2023/07/12 03:20:14;;;;;;;10.57;4.43;;;17.90;99.90;;;;;;5092642;28;20032;-77
2023/07/12 03:22:40;;;;;;;8.60;4.43;;;17.90;99.90;;;;;;5092367;28;20036;-77
2023/07/12 03:25:05;;;;;;;10.50;4.30;;;17.90;99.90;;;;;;5075393;28;20086;-77
2023/07/12 03:27:31;;;;;;;10.63;4.25;;;17.90;99.90;;;;;;5092139;28;20039;-77
2023/07/12 03:29:56;;;;;;;10.88;4.32;;;17.90;99.90;;;;;;5091977;28;20065;-77
2023/07/12 03:32:24;;;;;;;11.43;4.18;;;17.80;99.90;;;;;;5092265;28;20074;-77
2023/07/12 03:34:49;;;;;;;10.00;3.78;;;17.80;99.90;;;;;;5090809;28;20044;-77
2023/07/12 03:37:15;;;;;;;13.77;4.50;;;17.80;99.90;;;;;;5092108;28;20465;-78
2023/07/12 03:39:40;;;;;;;9.85;4.30;;;17.90;99.90;;;;;;5092482;28;20487;-78
2023/07/12 03:42:06;;;;;;;10.70;4.40;;;17.80;99.90;;;;;;5092264;28;20036;-77
2023/07/12 03:44:31;;;;;;;11.75;4.60;;;17.80;99.90;;;;;;5092562;28;20040;-78
2023/07/12 03:46:57;;;;;;;13.52;4.70;;;17.80;99.90;;;;;;5093510;28;20040;-78
2023/07/12 03:49:22;;;;;;;12.05;5.13;;;17.80;99.90;;;;;;5093157;28;20043;-77
2023/07/12 03:51:48;;;;;;;10.60;4.20;;;17.70;99.90;;;;;;5092063;28;20453;-77
2023/07/12 03:54:14;;;;;;;12.95;4.70;;;17.70;99.90;;;;;;5091898;28;20052;-77
2023/07/12 03:56:40;;;;;;;8.77;4.65;;;17.70;99.90;;;;;;5090588;28;20097;-77
2023/07/12 03:59:06;;;;;;;10.77;4.78;;;17.70;99.90;;;;;;5102534;28;20064;-77
2023/07/12 04:01:32;;;;;;;12.80;4.80;;;17.70;99.90;;;;;;5112381;28;20453;-77
2023/07/12 04:03:57;;;;;;;11.05;4.82;;;17.70;99.90;;;;;;5093339;28;20040;-77
2023/07/12 04:06:23;;;;;;;11.48;4.47;;;17.70;99.90;;;;;;5091174;28;20048;-77
2023/07/12 04:08:49;;;;;;;13.23;4.38;;;17.60;99.90;;;;;;5090857;28;20514;-78
2023/07/12 04:11:25;;;;;;;15.13;4.45;;;17.70;99.90;;;;;;5091448;28;20032;-77
2023/07/12 04:13:51;;;;;;;12.05;3.95;;;17.60;99.90;;;;;;5091099;28;20293;-77
2023/07/12 04:16:16;;;;;;;14.30;4.60;;;17.70;99.90;;;;;;5090777;28;20055;-78
2023/07/12 04:18:42;;;;;;;17.58;4.47;;;17.70;99.90;;;;;;5090488;28;20036;-77
2023/07/12 04:21:07;;;;;;;13.43;4.30;;;17.70;99.90;;;;;;5092270;28;20453;-77
2023/07/12 04:23:33;;;;;;;13.13;4.13;;;17.60;99.90;;;;;;5091541;28;20080;-77
2023/07/12 04:26:01;;;;;;;12.00;4.32;;;17.60;99.90;;;;;;5091723;28;20089;-77
2023/07/12 04:28:27;;;;;;;12.93;4.15;;;17.60;99.90;;;;;;5091178;28;20048;-77
2023/07/12 04:30:53;;;;;;;11.90;4.15;;;17.60;99.90;;;;;;5091344;28;20487;-77
2023/07/12 04:33:19;;;;;;;8.90;4.22;;;17.60;99.90;;;;;;5090684;28;20491;-77
2023/07/12 04:35:44;;;;;;;12.80;4.50;;;17.60;99.90;;;;;;5090127;28;20127;-77
2023/07/12 04:38:10;;;;;;;15.32;4.63;;;17.60;99.90;;;;;;5090892;28;20050;-77
2023/07/12 04:40:35;;;;;;;12.10;4.55;;;17.60;99.90;;;;;;5090678;28;20103;-77
2023/07/12 04:43:01;;;;;;;14.65;5.03;;;17.60;99.90;;;;;;5091431;28;20036;-77
2023/07/12 04:45:26;;;;;;;12.45;4.38;;;17.60;99.90;;;;;;5090838;28;20114;-77
2023/07/12 04:47:52;;;;;;;10.35;4.55;;;17.60;99.90;;;;;;5073751;28;20047;-77
2023/07/12 04:50:17;;;;;;;10.57;5.00;;;17.60;99.90;;;;;;5091753;28;20087;-77
2023/07/12 04:52:43;;;;;;;15.45;5.20;;;17.60;99.90;;;;;;5090955;28;20044;-77
2023/07/12 04:55:25;;;;;;;11.48;4.60;;;17.60;99.90;;;;;;5091105;28;20127;-77
2023/07/12 04:57:50;;;;;;;11.93;5.07;;;17.70;99.90;;;;;;5091958;28;20044;-77
2023/07/12 05:00:17;;;;;;;12.13;4.60;;;17.70;99.90;;;;;;5090898;28;20101;-77
2023/07/12 05:02:42;;;;;;;11.90;4.30;;;17.70;99.90;;;;;;5091174;28;20529;-77
2023/07/12 05:05:08;;;;;;;10.88;5.10;;;17.70;99.90;;;;;;5090487;28;20086;-77
2023/07/12 05:07:34;;;;;;;16.45;5.35;;;17.80;99.90;;;;;;5090301;28;20055;-77
2023/07/12 05:10:00;;;;;;;14.48;4.80;;;17.80;99.90;;;;;;5090337;28;20052;-77
2023/07/12 05:12:26;;;;;;;9.60;5.00;;;17.90;99.90;;;;;;5091060;28;20514;-77
2023/07/12 05:14:51;;;;;;;11.20;4.93;;;17.90;99.90;;;;;;5092268;28;20596;-77
2023/07/12 05:17:17;;;;;;;13.82;4.72;;;18.00;99.90;;;;;;5091289;28;20040;-77
2023/07/12 05:19:42;;;;;;;14.30;4.95;;;17.90;99.90;;;;;;5090859;28;20035;-77
2023/07/12 05:22:08;;;;;;;15.18;4.60;;;18.00;99.90;;;;;;5090497;28;20073;-77
2023/07/12 05:24:33;;;;;;;13.15;4.78;;;17.90;99.90;;;;;;5090297;28;20457;-77
2023/07/12 05:26:59;;;;;;;12.23;4.75;;;17.90;99.90;;;;;;5085701;28;20499;-77
2023/07/12 05:29:24;;;;;;;11.63;5.40;;;18.00;99.90;;;;;;5071324;28;20512;-77
2023/07/12 05:31:50;;;;;;;12.82;5.05;;;18.10;99.90;;;;;;5073963;28;20402;-77
2023/07/12 05:34:15;;;;;;;14.60;5.38;;;18.10;99.90;;;;;;5089780;28;20511;-78
2023/07/12 05:36:41;;;;;;;12.73;5.13;;;18.10;99.90;;;;;;5070594;28;20036;-78
2023/07/12 05:39:06;;;;;;;13.88;5.00;;;18.10;99.90;;;;;;5080120;28;20036;-77
2023/07/12 05:41:32;;;;;;;14.57;4.97;;;18.10;99.90;;;;;;5081545;28;20040;-77
2023/07/12 05:43:58;;;;;;;14.20;4.90;;;18.20;99.90;;;;;;5088663;28;20032;-77
2023/07/12 05:46:24;;;;;;;12.50;4.88;;;18.30;99.90;;;;;;5089431;28;20062;-78
2023/07/12 05:48:49;;;;;;;13.48;4.65;;;18.40;99.90;;;;;;5090065;28;20059;-77
2023/07/12 05:51:15;;;;;;;12.93;4.78;;;18.50;99.90;;;;;;5085577;28;20032;-77
2023/07/12 05:53:41;;;;;;;15.32;5.18;;;18.40;99.90;;;;;;5075969;28;20036;-78
2023/07/12 05:56:06;;;;;;;10.48;4.63;;;18.30;99.90;;;;;;5070582;28;20495;-78
2023/07/12 05:58:32;;;;;;;14.40;4.80;;;18.20;99.90;;;;;;5076568;28;20066;-78
2023/07/12 06:00:59;;;;;;;11.88;4.93;;;18.20;99.90;;;;;;5079925;28;20087;-78
2023/07/12 06:03:29;;;;;;;12.93;5.07;;;18.20;99.90;;;;;;5090911;28;20369;-78
2023/07/12 06:05:56;;;;;;;14.88;5.25;;;18.20;99.90;;;;;;5092689;28;20044;-77
2023/07/12 06:08:24;;;;;;;15.82;4.95;;;18.20;99.90;;;;;;5074266;28;20131;-78
2023/07/12 06:10:49;;;;;;;11.02;4.65;;;18.30;99.90;;;;;;5092096;28;20452;-79
2023/07/12 06:13:15;;;;;;;13.90;4.97;;;18.30;99.90;;;;;;5092329;28;20047;-78
2023/07/12 06:15:41;;;;;;;13.00;5.35;;;18.40;99.90;;;;;;5093490;28;20079;-79
2023/07/12 06:18:07;;;;;;;12.68;5.00;;;18.40;99.90;;;;;;5092006;28;20510;-78
2023/07/12 06:20:32;;;;;;;15.35;5.60;;;18.50;99.90;;;;;;5095032;28;20101;-77
2023/07/12 06:22:58;;;;;;;11.55;5.55;;;18.70;99.90;;;;;;5075384;28;20071;-78
2023/07/12 06:25:25;;;;;;;14.55;5.28;;;18.80;99.90;;;;;;5093228;28;20148;-78
2023/07/12 06:27:50;;;;;;;13.15;5.05;;;19.00;99.90;;;;;;5094719;28;20133;-79
2023/07/12 06:30:17;;;;;;;11.88;5.35;;;19.10;99.90;;;;;;5088742;28;20071;-79
2023/07/12 06:32:43;;;;;;;12.35;5.85;;;19.10;99.90;;;;;;5097340;28;20044;-78
2023/07/12 06:35:09;;;;;;;18.83;5.53;;;19.10;99.90;;;;;;5096701;28;20278;-79
2023/07/12 06:37:35;;;;;;;13.25;6.00;;;19.20;99.90;;;;;;5095758;28;20562;-79
2023/07/12 06:40:00;;;;;;;18.40;5.65;;;19.30;99.90;;;;;;5096128;28;20067;-78
2023/07/12 06:42:26;;;;;;;12.77;5.82;;;19.40;99.90;;;;;;5079302;28;20032;-79
2023/07/12 06:44:52;;;;;;;14.68;6.20;;;19.50;99.90;;;;;;5097926;28;20065;-79
2023/07/12 06:47:17;;;;;;;14.00;5.75;;;19.70;99.90;;;;;;5082024;28;20085;-79
2023/07/12 06:49:43;;;;;;;15.32;5.70;;;20.00;99.90;;;;;;5100792;28;20126;-79
2023/07/12 06:52:12;;;;;;;15.02;5.72;;;20.20;99.90;;;;;;5100003;28;20040;-79
2023/07/12 06:54:38;;;;;;;12.15;5.30;;;20.30;99.90;;;;;;5097172;28;20036;-79
2023/07/12 06:57:04;;;;;;;17.10;5.60;;;20.30;99.90;;;;;;5097662;28;20046;-79
2023/07/12 06:59:30;;;;;;;13.40;5.63;;;20.30;99.90;;;;;;5082316;28;20044;-80
2023/07/12 07:01:55;;;;;;;16.15;5.40;;;20.50;99.90;;;;;;5097234;28;20055;-79
2023/07/12 07:04:21;;;;;;;14.77;5.40;;;20.60;99.90;;;;;;5073829;28;20047;-78
2023/07/12 07:06:47;;;;;;;15.98;5.07;;;20.70;99.90;;;;;;5094358;28;20125;-81
2023/07/12 07:09:13;;;;;;;15.18;4.95;;;20.60;99.90;;;;;;5089041;28;20036;-78
2023/07/12 07:11:38;;;;;;;14.38;4.80;;;20.60;99.90;;;;;;5092431;28;20056;-79
2023/07/12 07:14:04;;;;;;;14.63;4.72;;;20.70;99.90;;;;;;5099189;28;20036;-79
2023/07/12 07:16:30;;;;;;;12.05;4.50;;;20.70;99.90;;;;;;5099174;28;20103;-79
2023/07/12 07:18:56;;;;;;;16.10;4.30;;;20.60;99.90;;;;;;5094748;28;20496;-79
2023/07/12 07:21:22;;;;;;;13.45;4.10;;;20.30;99.90;;;;;;5099350;28;20032;-80
2023/07/12 07:23:47;;;;;;;12.30;3.55;;;20.40;99.90;;;;;;5099175;28;20032;-79
2023/07/12 07:26:13;;;;;;;10.98;3.53;;;20.60;99.90;;;;;;5083128;28;20119;-80
2023/07/12 07:28:40;;;;;;;11.38;3.33;;;20.70;99.90;;;;;;5099964;28;20063;-80
2023/07/12 07:31:06;;;;;;;12.68;3.83;;;20.70;99.90;;;;;;5102969;28;20119;-79
2023/07/12 07:33:32;;;;;;;13.02;3.92;;;20.70;99.90;;;;;;5101859;28;20484;-80
2023/07/12 07:35:57;;;;;;;13.63;3.67;;;20.90;99.90;;;;;;5099549;28;20071;-79
2023/07/12 07:38:27;;;;;;;14.43;3.72;;;20.70;99.90;;;;;;5096378;28;20119;-79
2023/07/12 07:40:54;;;;;;;13.18;3.70;;;20.60;99.90;;;;;;5096949;28;20032;-79
2023/07/12 07:43:19;;;;;;;13.95;3.97;;;20.60;99.90;;;;;;5097661;28;20535;-79
2023/07/12 07:45:45;;;;;;;12.85;3.42;;;20.60;99.90;;;;;;5098970;28;20036;-80
2023/07/12 07:48:10;;;;;;;12.77;3.53;;;20.50;99.90;;;;;;5097632;28;20043;-79
2023/07/12 07:50:38;;;;;;;10.50;3.65;;;20.40;99.90;;;;;;5094865;28;20046;-79
2023/07/12 07:53:04;;;;;;;12.80;3.10;;;20.30;99.90;;;;;;5096088;28;20043;-79
2023/07/12 07:55:30;;;;;;;14.65;3.80;;;20.20;99.90;;;;;;5099171;28;20044;-79
2023/07/12 07:57:56;;;;;;;9.82;3.30;;;20.10;99.90;;;;;;5095417;28;20048;-79
2023/07/12 08:00:21;;;;;;;9.27;3.17;;;20.30;99.90;;;;;;5088830;28;20039;-79
2023/07/12 08:02:47;;;;;;;8.98;2.80;;;20.70;99.90;;;;;;5069314;28;20058;-78
2023/07/12 08:05:14;;;;;;;8.20;2.90;;;20.90;99.90;;;;;;5064970;28;20043;-78
2023/07/12 08:07:46;;;;;;;11.55;3.03;;;21.10;99.90;;;;;;5096284;28;20091;-79
2023/07/12 08:10:17;;;;;;;10.93;3.25;;;21.40;99.90;;;;;;5093340;28;20041;-78
2023/07/12 08:12:43;;;;;;;9.15;3.30;;;21.50;99.90;;;;;;5080147;28;20086;-78
2023/07/12 08:15:10;;;;;;;9.35;2.95;;;21.80;99.90;;;;;;5059480;28;20590;-78
2023/07/12 08:17:36;;;;;;;12.15;3.30;;;21.80;99.90;;;;;;5088889;28;20522;-78
2023/07/12 08:20:04;;;;;;;12.90;3.72;;;21.70;99.90;;;;;;5091578;28;20085;-78
2023/07/12 08:22:30;;;;;;;12.88;3.55;;;21.30;99.90;;;;;;5082870;28;20074;-78
2023/07/12 08:24:56;;;;;;;10.63;3.13;;;21.00;99.90;;;;;;5070445;28;20040;-78
2023/07/12 08:27:21;;;;;;;7.15;2.50;;;20.60;99.90;;;;;;5086458;28;20080;-78
2023/07/12 08:29:47;;;;;;;5.97;2.25;;;20.30;99.90;;;;;;5075067;28;20070;-78
2023/07/12 08:32:12;;;;;;;6.43;2.35;;;20.20;99.90;;;;;;5083696;28;20047;-78
2023/07/12 08:34:38;;;;;;;6.07;2.15;;;20.00;99.90;;;;;;5088501;28;20039;-78
2023/07/12 08:37:04;;;;;;;6.80;2.90;;;19.90;99.90;;;;;;5080226;28;20048;-77
2023/07/12 08:39:30;;;;;;;11.30;3.50;;;19.80;99.90;;;;;;5077003;28;20041;-78
2023/07/12 08:41:57;;;;;;;10.52;3.40;;;19.70;99.90;;;;;;5075415;28;20032;-78
2023/07/12 08:44:23;;;;;;;12.57;3.75;;;19.70;99.90;;;;;;5082129;28;20037;-78
2023/07/12 08:46:57;;;;;;;10.55;3.15;;;19.70;99.90;;;;;;5074808;28;20040;-78
2023/07/12 08:49:24;;;;;;;7.50;2.97;;;19.70;99.90;;;;;;5083933;28;20116;-78
2023/07/12 08:51:52;;;;;;;8.30;2.60;;;19.80;99.90;;;;;;5086853;28;20072;-78
2023/07/12 08:54:22;;;;;;;6.43;2.45;;;19.80;99.90;;;;;;5074125;28;20082;-78
2023/07/12 08:56:49;;;;;;;7.00;2.42;;;19.90;99.90;;;;;;5084457;28;20040;-78
2023/07/12 08:59:16;;;;;;;5.95;2.30;;;19.80;99.90;;;;;;5072602;28;20121;-78
2023/07/12 09:01:53;;;;;;;7.63;2.47;;;20.00;99.90;;;;;;5072632;28;20067;-78
2023/07/12 09:04:25;;;;;;;7.95;2.90;;;20.10;99.90;;;;;;5077731;28;20410;-78
2023/07/12 09:06:54;;;;;;;7.97;2.67;;;20.30;99.90;;;;;;5089416;28;20503;-78
2023/07/12 09:09:20;;;;;;;8.15;2.80;;;20.60;99.90;;;;;;5082934;28;20040;-79
2023/07/12 09:11:46;;;;;;;9.05;3.08;;;20.80;99.90;;;;;;5082623;28;20051;-78
2023/07/12 09:14:22;;;;;;;11.35;2.85;;;21.10;99.90;;;;;;5076573;28;20044;-78
2023/07/12 09:16:58;;;;;;;11.70;3.40;;;21.30;99.90;;;;;;5080276;28;20075;-79
2023/07/12 09:19:27;;;;;;;8.77;3.13;;;21.60;99.90;;;;;;5076640;28;20082;-78
2023/07/12 09:21:56;;;;;;;8.98;3.17;;;21.40;99.90;;;;;;5083458;28;20537;-79
2023/07/12 09:24:30;;;;;;;9.02;3.00;;;21.20;99.90;;;;;;5083111;28;20036;-78
2023/07/12 09:27:04;;;;;;;13.10;3.60;;;20.90;99.90;;;;;;5048928;28;20032;-78
2023/07/12 09:29:33;;;;;;;14.25;3.97;;;20.60;99.90;;;;;;5077590;28;20512;-78
2023/07/12 09:32:00;;;;;;;10.25;3.28;;;20.30;99.90;;;;;;5090226;28;20046;-79
2023/07/12 09:34:37;;;;;;;11.52;3.25;;;20.20;99.90;;;;;;5089856;28;20036;-79
2023/07/12 09:37:03;;;;;;;11.10;3.22;;;19.90;99.90;;;;;;5090016;28;20253;-79
2023/07/12 09:39:29;;;;;;;10.40;3.05;;;19.70;99.90;;;;;;5089968;28;20035;-78
2023/07/12 09:42:02;;;;;;;11.95;3.63;;;19.50;99.90;;;;;;5089953;28;20124;-79
2023/07/12 09:44:30;;;;;;;9.73;3.28;;;19.50;99.90;;;;;;5089825;28;20396;-79
2023/07/12 09:47:06;;;;;;;10.40;3.10;;;19.50;99.90;;;;;;5089576;28;20044;-78
2023/07/12 09:49:43;;;;;;;9.52;3.58;;;19.60;99.90;;;;;;5083750;28;20051;-78
2023/07/12 09:52:09;;;;;;;8.82;3.22;;;19.90;99.90;;;;;;5090183;28;20407;-78
2023/07/12 09:54:41;;;;;;;6.75;2.90;;;20.20;99.90;;;;;;5089506;28;20050;-78
2023/07/12 09:57:34;;;;;;;5.90;2.67;;;20.40;99.90;;;;;;5089877;28;20301;-78
2023/07/12 10:00:21;;;;;;;7.73;2.50;;;20.40;99.90;;;;;;5073279;28;20486;-78
2023/07/12 10:03:08;;;;;;;10.18;2.80;;;20.50;99.90;;;;;;5090348;28;20051;-78
2023/07/12 10:05:35;;;;;;;7.85;2.22;;;20.50;99.90;;;;;;5086809;28;20044;-78
2023/07/12 10:08:12;;;;;;;9.55;2.47;;;20.60;99.90;;;;;;5092301;28;20054;-79
2023/07/12 10:11:04;;;;;;;7.85;2.50;;;20.60;99.90;;;;;;5075615;28;20096;-78
2023/07/12 10:13:35;;;;;;;4.78;2.10;;;20.60;99.90;;;;;;5093504;28;20047;-79
2023/07/12 10:16:04;;;;;;;5.78;2.15;;;20.70;99.90;;;;;;5076287;28;20040;-79
2023/07/12 10:18:34;;;;;;;9.30;2.20;;;20.80;99.90;;;;;;5095927;28;20104;-78
2023/07/12 10:21:01;;;;;;;5.75;2.00;;;20.90;99.90;;;;;;5097975;28;20043;-78
2023/07/12 10:23:32;;;;;;;6.97;2.75;;;20.90;99.90;;;;;;5096794;28;20530;-78
2023/07/12 10:26:02;;;;;;;6.57;2.10;;;20.90;99.90;;;;;;5098894;28;20443;-79
2023/07/12 10:28:43;;;;;;;5.85;2.33;;;21.10;99.90;;;;;;5098196;28;20043;-79
2023/07/12 10:31:32;;;;;;;5.95;2.38;;;21.40;99.90;;;;;;5093407;28;20048;-79
2023/07/12 10:34:18;;;;;;;8.82;2.10;;;21.50;99.90;;;;;;5089456;28;20055;-77
2023/07/12 10:36:45;;;;;;;6.63;2.00;;;21.60;99.90;;;;;;5088943;28;20048;-77
2023/07/12 10:39:12;;;;;;;6.55;2.15;;;21.30;99.90;;;;;;5099149;28;20407;-78
2023/07/12 10:42:10;;;;;;;5.32;1.80;;;21.20;99.90;;;;;;5094001;28;20036;-78
2023/07/12 10:44:42;;;;;;;3.83;2.05;;;21.10;99.90;;;;;;5075653;28;20076;-78
2023/07/12 10:47:15;;;;;;;7.77;2.03;;;21.20;99.90;;;;;;5091451;28;20093;-78
2023/07/12 10:49:41;;;;;;;6.25;2.15;;;21.30;99.90;;;;;;5065037;28;20032;-78
2023/07/12 10:52:09;;;;;;;6.15;2.00;;;21.30;99.90;;;;;;5084870;28;20086;-79
2023/07/12 10:54:35;;;;;;;6.72;2.10;;;21.50;99.90;;;;;;5066443;28;20043;-80
2023/07/12 10:57:18;;;;;;;4.50;1.85;;;21.80;99.90;;;;;;5091234;28;20032;-79
2023/07/12 10:59:45;;;;;;;4.88;1.98;;;22.20;99.90;;;;;;5095704;28;20041;-78
2023/07/12 11:02:44;;;;;;;4.97;1.90;;;22.60;99.90;;;;;;5089715;28;20044;-80
2023/07/12 11:05:37;;;;;;;4.57;2.03;;;22.60;99.90;;;;;;5091120;28;20071;-78
2023/07/12 11:08:03;;;;;;;3.47;1.70;;;22.80;99.90;;;;;;5095614;28;20047;-78
2023/07/12 11:10:34;;;;;;;4.15;1.55;;;22.90;99.90;;;;;;5092640;28;20555;-79
2023/07/12 11:13:14;;;;;;;4.38;1.35;;;22.90;99.90;;;;;;5086402;28;21147;-78
2023/07/12 11:15:56;;;;;;;4.88;1.48;;;23.00;99.90;;;;;;5083220;28;20543;-79
2023/07/12 11:18:29;;;;;;;3.25;1.38;;;23.00;99.90;;;;;;5081660;28;20085;-78
2023/07/12 11:21:25;;;;;;;4.40;1.27;;;23.00;99.90;;;;;;5067015;28;20059;-78
2023/07/12 11:23:50;;;;;;;4.47;1.42;;;23.20;99.90;;;;;;5089988;28;20032;-78
2023/07/12 11:26:27;;;;;;;3.78;1.30;;;23.00;99.90;;;;;;5091808;28;20032;-78
2023/07/12 11:28:53;;;;;;;3.75;1.30;;;23.20;99.90;;;;;;5082494;28;20068;-79
2023/07/12 11:31:29;;;;;;;3.65;1.02;;;23.40;99.90;;;;;;5084144;28;20045;-77
2023/07/12 11:34:14;;;;;;;5.00;1.30;;;23.40;99.90;;;;;;5094692;28;20042;-78
2023/07/12 11:36:40;;;;;;;5.55;1.38;;;23.40;99.90;;;;;;5084326;28;20040;-80
2023/07/12 11:39:22;;;;;;;3.70;1.27;;;23.60;99.90;;;;;;5080163;28;20036;-78
2023/07/12 11:41:54;;;;;;;2.65;1.13;;;23.80;99.90;;;;;;5084506;28;20036;-78
2023/07/12 11:44:20;;;;;;;4.05;1.17;;;23.90;99.90;;;;;;5083721;28;20380;-79
2023/07/12 11:46:50;;;;;;;3.70;1.20;;;23.60;99.90;;;;;;5095568;28;20055;-80
2023/07/12 11:49:18;;;;;;;5.32;1.25;;;23.70;99.90;;;;;;5091663;28;20103;-79
2023/07/12 11:51:47;;;;;;;3.88;1.63;;;23.50;99.90;;;;;;5084784;28;20131;-78
2023/07/12 11:54:20;;;;;;;4.53;1.10;;;23.30;99.90;;;;;;5090541;28;20028;-79
2023/07/12 11:56:47;;;;;;;3.35;1.20;;;23.40;99.90;;;;;;5099053;28;20454;-80
2023/07/12 11:59:15;;;;;;;3.72;1.10;;;23.40;99.90;;;;;;5101280;28;20043;-78
2023/07/12 12:01:43;;;;;;;4.13;1.20;;;23.80;99.90;;;;;;5088436;28;20490;-78
2023/07/12 12:04:08;;;;;;;3.92;1.20;;;23.70;99.90;;;;;;5088477;28;20096;-80
2023/07/12 12:06:35;;;;;;;3.25;1.20;;;23.30;99.90;;;;;;5088433;28;20443;-79
2023/07/12 12:09:01;;;;;;;2.60;1.10;;;22.90;99.90;;;;;;5072612;28;20036;-79
2023/07/12 12:11:28;;;;;;;3.17;1.30;;;22.80;99.90;;;;;;5096479;28;20371;-80
2023/07/12 12:13:56;;;;;;;7.97;1.60;;;22.90;99.90;;;;;;5096050;28;20044;-79
2023/07/12 12:16:29;;;;;;;4.00;1.20;;;23.20;99.90;;;;;;5088849;28;20028;-79
2023/07/12 12:18:58;;;;;;;5.05;1.27;;;23.30;99.90;;;;;;5091413;28;20050;-79
2023/07/12 12:21:26;;;;;;;2.33;1.00;;;23.20;99.90;;;;;;5080475;28;20043;-80
2023/07/12 12:23:54;;;;;;;3.13;1.15;;;23.30;99.90;;;;;;5089863;28;20042;-79
2023/07/12 12:26:27;;;;;;;2.80;1.10;;;23.50;99.90;;;;;;5068802;28;20036;-80
2023/07/12 12:29:00;;;;;;;3.85;1.08;;;23.20;99.90;;;;;;5079661;28;20048;-79
2023/07/12 12:31:29;;;;;;;3.95;0.90;;;23.20;99.90;;;;;;5088892;28;20071;-80
2023/07/12 12:34:05;;;;;;;3.25;0.98;;;23.60;99.90;;;;;;5070647;28;20108;-79
2023/07/12 12:36:33;;;;;;;2.67;0.80;;;23.80;99.90;;;;;;5093333;28;20044;-79
2023/07/12 12:39:05;;;;;;;4.63;1.05;;;24.00;99.90;;;;;;5084145;28;20043;-78
2023/07/12 12:41:38;;;;;;;3.65;0.88;;;23.90;99.90;;;;;;5081638;28;20051;-79
2023/07/12 12:44:30;;;;;;;3.40;1.10;;;23.60;99.90;;;;;;5102873;28;20024;-80
2023/07/12 12:46:59;;;;;;;3.40;1.08;;;24.10;99.90;;;;;;5099384;28;20399;-80
2023/07/12 12:49:27;;;;;;;2.65;0.90;;;24.00;99.90;;;;;;5100048;28;20036;-79